Time;durP1;ratioP1;P1;durP2;ratioP2;P2;SDS_P1;SDS_P2;PMS_P1;PMS_P2;Temp;Humidity;BMP_temperature;BMP_pressure;BME280_temperature;BME280_humidity;BME280_pressure;Samples;Min_cycle;Max_cycle;Signal;HPM_P1;HPM_P2
2021/12/31 00:00:11;;;;;;;55.75;23.48;;;;;;;-5.43;74.78;99812.66;5091880;28;20080;-84
2021/12/31 00:02:38;;;;;;;55.07;24.43;;;;;;;-5.44;75.36;99813.41;5093315;28;20070;-82
2021/12/31 00:05:07;;;;;;;58.15;23.70;;;;;;;-5.38;74.63;99819.81;5091702;28;20285;-85
2021/12/31 00:07:34;;;;;;;53.97;21.80;;;;;;;-5.47;75.15;99811.56;5092145;28;20460;-82
2021/12/31 00:10:01;;;;;;;53.05;21.90;;;;;;;-5.54;74.84;99801.75;5098111;28;20063;-82
2021/12/31 00:12:30;;;;;;;57.75;22.92;;;;;;;-5.44;75.08;99815.97;5101877;28;20045;-82
2021/12/31 00:14:58;;;;;;;56.63;23.20;;;;;;;-5.37;74.76;99810.50;5101090;28;20055;-81
2021/12/31 00:17:25;;;;;;;59.60;23.63;;;;;;;-5.39;74.87;99799.34;5092963;28;20146;-84
2021/12/31 00:20:01;;;;;;;63.67;24.52;;;;;;;-5.29;74.97;99816.09;5094530;28;20052;-82
2021/12/31 00:25:15;;;;;;;58.47;24.27;;;;;;;-5.28;74.66;99795.81;5093451;28;20078;-86
2021/12/31 00:27:42;;;;;;;54.70;23.20;;;;;;;-5.19;74.95;99788.78;5091230;28;20063;-82
2021/12/31 00:30:09;;;;;;;56.17;22.98;;;;;;;-5.23;74.29;99781.72;5092871;28;20059;-84
2021/12/31 00:32:36;;;;;;;54.30;22.30;;;;;;;-5.12;74.96;99778.97;5091766;28;20048;-84
2021/12/31 00:35:05;;;;;;;51.15;21.65;;;;;;;-5.04;74.30;99788.00;5092308;28;20506;-84
2021/12/31 00:37:35;;;;;;;58.42;22.33;;;;;;;-5.01;74.15;99788.19;5092950;28;20060;-84
2021/12/31 00:40:04;;;;;;;;;;;;;;;-5.15;74.15;99775.44;5092969;28;20063;-82
2021/12/31 00:42:31;;;;;;;49.38;20.48;;;;;;;-5.21;73.97;99772.50;5092825;28;19955;-84
2021/12/31 00:44:58;;;;;;;54.38;21.15;;;;;;;-5.22;74.35;99774.97;5091685;28;20052;-82
2021/12/31 00:47:25;;;;;;;51.58;21.17;;;;;;;-5.20;74.50;99753.91;5091892;28;20552;-83
2021/12/31 00:49:52;;;;;;;49.65;20.80;;;;;;;-5.08;74.27;99761.44;5093025;28;20052;-84
2021/12/31 00:52:19;;;;;;;49.20;21.38;;;;;;;-4.95;74.37;99771.66;5089334;28;20106;-82
2021/12/31 00:54:46;;;;;;;53.45;21.92;;;;;;;-5.00;73.97;99769.59;5092886;28;20097;-83
2021/12/31 00:57:13;;;;;;;50.28;21.15;;;;;;;-5.05;74.29;99770.97;5092067;28;20133;-83
2021/12/31 00:59:41;;;;;;;55.00;21.42;;;;;;;-5.15;74.24;99741.47;5092869;28;20056;-85
2021/12/31 01:02:11;;;;;;;47.97;21.92;;;;;;;-5.06;74.43;99749.69;5093219;28;20078;-84
2021/12/31 01:04:39;;;;;;;51.85;21.42;;;;;;;-4.97;74.09;99762.13;5091226;28;20058;-84
2021/12/31 01:07:06;;;;;;;53.58;21.67;;;;;;;-4.95;73.79;99751.28;5092482;28;20048;-82
2021/12/31 01:09:33;;;;;;;47.60;21.63;;;;;;;-4.99;74.06;99753.50;5093185;28;20157;-82
2021/12/31 01:12:01;;;;;;;48.55;20.98;;;;;;;-4.96;73.78;99752.03;5095856;28;20056;-82
2021/12/31 01:14:36;;;;;;;48.92;20.45;;;;;;;-5.03;73.50;99751.56;5096424;28;20143;-82
2021/12/31 01:17:07;;;;;;;46.63;20.33;;;;;;;-5.15;73.87;99729.59;5095900;28;20056;-82
2021/12/31 01:19:45;;;;;;;52.97;20.67;;;;;;;-5.14;74.09;99735.59;5105779;28;20051;-79
2021/12/31 01:22:23;;;;;;;51.90;21.25;;;;;;;-5.18;73.93;99736.19;5100528;28;20052;-81
2021/12/31 01:24:50;;;;;;;47.50;20.80;;;;;;;-5.24;73.91;99728.16;5099073;28;20044;-81
2021/12/31 01:27:17;;;;;;;49.40;20.20;;;;;;;-5.26;74.09;99727.19;5083565;28;20064;-79
2021/12/31 01:29:44;;;;;;;49.60;19.88;;;;;;;-5.24;74.25;99736.66;5111660;28;20137;-78
2021/12/31 01:32:11;;;;;;;54.35;21.70;;;;;;;-5.29;74.02;99739.69;5119075;28;20052;-79
2021/12/31 01:34:39;;;;;;;48.40;19.92;;;;;;;-5.31;74.10;99725.97;5098184;28;20135;-84
2021/12/31 01:37:07;;;;;;;50.65;20.83;;;;;;;-5.26;73.69;99722.97;5076872;28;20122;-80
2021/12/31 01:39:35;;;;;;;48.67;20.10;;;;;;;-5.34;74.03;99716.50;5076877;28;20090;-82
2021/12/31 01:42:06;;;;;;;50.70;20.45;;;;;;;-5.36;73.91;99706.19;5075849;28;20075;-84
2021/12/31 01:44:40;;;;;;;49.15;20.75;;;;;;;-5.25;73.99;99732.38;5075233;28;20520;-84
2021/12/31 01:47:12;;;;;;;50.70;21.30;;;;;;;-5.35;74.09;99722.38;5074563;28;20075;-85
2021/12/31 01:49:43;;;;;;;49.60;20.27;;;;;;;-5.33;74.28;99725.91;5074110;28;20060;-82
2021/12/31 01:52:11;;;;;;;48.28;19.23;;;;;;;-5.40;74.64;99709.34;5075025;28;20056;-84
2021/12/31 01:54:38;;;;;;;50.95;20.60;;;;;;;-5.40;74.67;99709.34;5073805;28;20048;-84
2021/12/31 01:57:09;;;;;;;48.97;20.80;;;;;;;-5.30;74.38;99725.22;5074330;28;20143;-84
2021/12/31 01:59:38;;;;;;;49.65;20.98;;;;;;;-5.44;74.08;99693.75;5073682;28;20071;-84
2021/12/31 02:02:06;;;;;;;50.40;21.88;;;;;;;-5.35;74.87;99718.16;5074977;28;20147;-83
2021/12/31 02:04:36;;;;;;;50.17;22.20;;;;;;;-5.27;74.48;99713.56;5074744;28;20057;-81
2021/12/31 02:07:03;;;;;;;47.43;20.13;;;;;;;-5.19;74.25;99712.38;5075877;28;20052;-83
2021/12/31 02:09:35;;;;;;;51.75;21.42;;;;;;;-5.21;73.79;99706.28;5075515;28;20076;-82
2021/12/31 02:12:02;;;;;;;53.75;21.75;;;;;;;-5.31;74.31;99705.59;5074590;28;20497;-81
2021/12/31 02:14:30;;;;;;;54.95;20.58;;;;;;;-5.20;74.17;99713.16;5076029;28;20091;-84
2021/12/31 02:16:57;;;;;;;48.78;21.05;;;;;;;-5.28;74.06;99690.53;5081406;28;20052;-80
2021/12/31 02:19:28;;;;;;;52.40;21.55;;;;;;;-5.25;73.73;99695.81;5083196;28;20053;-82
2021/12/31 02:21:56;;;;;;;49.75;20.98;;;;;;;-5.21;74.08;99700.31;5075297;28;20056;-86
2021/12/31 02:24:24;;;;;;;49.80;20.67;;;;;;;-5.28;74.32;99701.59;5073431;28;20056;-86
2021/12/31 02:26:51;;;;;;;52.25;19.58;;;;;;;-5.23;74.37;99687.47;5073146;28;20058;-86
2021/12/31 02:29:21;;;;;;;51.13;21.40;;;;;;;-5.44;74.10;99628.47;5074045;28;20052;-81
2021/12/31 02:31:49;;;;;;;50.85;21.85;;;;;;;-5.10;74.09;99688.25;5073457;28;20074;-83
2021/12/31 02:34:16;;;;;;;52.30;21.83;;;;;;;-5.10;73.94;99675.53;5074025;28;20056;-80
2021/12/31 02:36:43;;;;;;;53.33;21.60;;;;;;;-5.19;73.48;99689.44;5072647;28;20056;-82
2021/12/31 02:39:09;;;;;;;56.15;22.70;;;;;;;-5.28;74.15;99682.91;5072485;28;20052;-81
2021/12/31 02:41:37;;;;;;;51.10;20.67;;;;;;;-5.26;74.29;99683.88;5071024;28;20100;-82
2021/12/31 02:44:04;;;;;;;50.15;21.23;;;;;;;-5.27;73.97;99667.72;5073266;28;20498;-80
2021/12/31 02:46:31;;;;;;;46.45;19.45;;;;;;;-5.22;74.00;99666.34;5074188;28;20532;-84
2021/12/31 02:48:58;;;;;;;47.90;19.50;;;;;;;-5.16;73.96;99676.91;5074659;28;20052;-84
2021/12/31 02:51:27;;;;;;;45.63;20.58;;;;;;;-5.09;73.80;99664.56;5074919;28;20178;-82
2021/12/31 02:53:57;;;;;;;50.95;20.48;;;;;;;-5.11;73.71;99663.59;5074817;28;20082;-85
2021/12/31 02:56:24;;;;;;;46.03;20.50;;;;;;;-5.08;74.20;99674.84;5074152;28;20060;-83
2021/12/31 02:58:52;;;;;;;46.75;19.60;;;;;;;-5.15;73.83;99665.94;5073678;28;20114;-81
2021/12/31 03:01:19;;;;;;;45.50;19.08;;;;;;;-5.10;73.91;99665.34;5072655;28;20147;-82
2021/12/31 03:03:48;;;;;;;50.28;20.00;;;;;;;-5.35;73.93;99646.88;5073996;28;20048;-81
2021/12/31 03:06:16;;;;;;;49.25;20.80;;;;;;;-5.26;74.00;99641.47;5073325;28;20072;-82
2021/12/31 03:08:45;;;;;;;48.60;20.85;;;;;;;-5.07;74.20;99671.50;5073197;28;21252;-83
2021/12/31 03:11:14;;;;;;;47.25;19.75;;;;;;;-4.94;74.10;99651.09;5074032;28;20127;-84
2021/12/31 03:13:43;;;;;;;46.92;19.73;;;;;;;-4.85;73.55;99660.09;5073168;28;20371;-84
2021/12/31 03:16:10;;;;;;;47.20;18.88;;;;;;;-5.01;73.42;99633.69;5074101;28;20051;-86
2021/12/31 03:18:39;;;;;;;48.75;19.65;;;;;;;-4.93;73.60;99657.06;5072501;28;20498;-80
2021/12/31 03:21:20;;;;;;;47.60;20.48;;;;;;;-5.07;73.47;99640.94;5073749;28;20060;-85
2021/12/31 03:23:50;;;;;;;46.17;19.10;;;;;;;-5.15;73.99;99642.13;5071391;28;20457;-82
2021/12/31 03:26:17;;;;;;;48.30;19.13;;;;;;;-5.09;74.09;99641.63;5073002;28;20048;-85
2021/12/31 03:28:44;;;;;;;46.83;19.30;;;;;;;-5.06;74.20;99636.72;5072445;28;20059;-80
2021/12/31 03:31:11;;;;;;;46.78;19.38;;;;;;;-5.21;73.58;99598.44;5071834;28;20068;-85
2021/12/31 03:33:38;;;;;;;47.65;20.33;;;;;;;-5.04;73.77;99617.31;5070853;28;20053;-85
2021/12/31 03:36:06;;;;;;;44.80;18.42;;;;;;;-4.96;73.65;99632.28;5071908;28;20466;-84
2021/12/31 03:38:33;;;;;;;48.42;21.00;;;;;;;-4.99;73.51;99624.47;5071884;28;20048;-81
2021/12/31 03:41:00;;;;;;;46.75;19.80;;;;;;;-4.95;73.76;99611.13;5069645;28;20048;-83
2021/12/31 03:43:27;;;;;;;44.47;19.17;;;;;;;-4.89;73.44;99617.38;5070645;28;20129;-82
2021/12/31 03:45:54;;;;;;;41.70;18.00;;;;;;;-4.78;73.51;99619.75;5071409;28;20056;-81
2021/12/31 03:48:22;;;;;;;45.05;19.00;;;;;;;-4.81;73.01;99594.13;5071588;28;20474;-80
2021/12/31 03:50:49;;;;;;;49.95;19.75;;;;;;;-4.76;73.25;99617.31;5070858;28;20090;-82
2021/12/31 03:53:16;;;;;;;43.13;19.30;;;;;;;-4.81;73.60;99593.25;5071582;28;20048;-80
2021/12/31 03:55:44;;;;;;;45.40;19.48;;;;;;;-4.64;73.69;99602.75;5055827;28;20041;-81
2021/12/31 03:58:10;;;;;;;45.15;19.98;;;;;;;-4.58;72.92;99600.59;5072738;28;20048;-81
2021/12/31 04:00:38;;;;;;;48.42;19.70;;;;;;;-4.57;72.65;99574.28;5072994;28;20072;-82
2021/12/31 04:03:10;;;;;;;46.35;19.52;;;;;;;-4.49;72.99;99584.06;5073205;28;20060;-81
2021/12/31 04:05:40;;;;;;;45.53;19.88;;;;;;;-4.50;72.98;99584.84;5072059;28;20063;-84
2021/12/31 04:08:09;;;;;;;44.03;19.77;;;;;;;-4.50;72.76;99588.28;5072479;28;20044;-81
2021/12/31 04:10:37;;;;;;;48.17;20.92;;;;;;;-4.53;72.57;99577.91;5072445;28;20068;-84
2021/12/31 04:13:04;;;;;;;44.88;19.75;;;;;;;-4.53;72.48;99578.78;5071801;28;20418;-80
2021/12/31 04:15:31;;;;;;;47.55;20.08;;;;;;;-4.48;72.78;99594.34;5071944;28;20056;-80
2021/12/31 04:17:58;;;;;;;42.58;19.35;;;;;;;-4.49;72.60;99591.72;5072452;28;20052;-84
2021/12/31 04:23:04;;;;;;;43.67;19.15;;;;;;;-4.72;73.12;99586.13;5072022;28;20498;-84
2021/12/31 04:25:31;;;;;;;43.58;18.85;;;;;;;-4.75;73.51;99586.84;5072230;28;20075;-82
2021/12/31 04:27:58;;;;;;;45.95;19.75;;;;;;;-4.66;73.28;99595.81;5072039;28;20476;-84
2021/12/31 04:30:25;;;;;;;42.65;19.35;;;;;;;-4.58;73.48;99589.47;5071389;28;20052;-82
2021/12/31 04:32:52;;;;;;;45.10;19.02;;;;;;;-4.49;72.83;99596.81;5070407;28;20468;-83
2021/12/31 04:35:19;;;;;;;50.20;19.40;;;;;;;-4.54;72.47;99576.13;5072015;28;20056;-86
2021/12/31 04:37:46;;;;;;;41.40;17.85;;;;;;;-4.45;72.67;99591.09;5071119;28;20056;-87
2021/12/31 04:40:14;;;;;;;45.60;19.92;;;;;;;-4.48;72.41;99590.91;5072141;28;20072;-83
2021/12/31 04:42:41;;;;;;;42.72;18.55;;;;;;;-4.56;72.33;99567.50;5072262;28;20056;-83
2021/12/31 04:45:13;;;;;;;45.53;18.85;;;;;;;-4.73;72.50;99546.16;5073388;28;20217;-83
2021/12/31 04:47:40;;;;;;;46.13;19.40;;;;;;;-4.77;72.67;99554.41;5074761;28;20083;-82
2021/12/31 04:50:07;;;;;;;47.13;18.30;;;;;;;-4.80;73.05;99557.63;5075850;28;20116;-85
2021/12/31 04:52:34;;;;;;;43.50;19.08;;;;;;;-4.77;72.98;99557.84;5093444;28;20048;-83
2021/12/31 04:55:02;;;;;;;42.33;18.33;;;;;;;-4.76;73.17;99563.81;5099315;28;20096;-81
2021/12/31 04:57:29;;;;;;;44.35;18.65;;;;;;;-4.78;73.06;99552.63;5087723;28;20052;-84
2021/12/31 04:59:56;;;;;;;41.72;18.23;;;;;;;-4.76;73.05;99554.47;5078026;28;20407;-82
2021/12/31 05:02:23;;;;;;;46.13;18.33;;;;;;;-4.81;72.84;99553.34;5094105;28;20062;-80
2021/12/31 05:04:51;;;;;;;44.40;18.48;;;;;;;-4.74;72.96;99549.47;5097141;28;20063;-86
2021/12/31 05:07:18;;;;;;;47.90;20.27;;;;;;;-4.72;73.01;99555.53;5095100;28;20048;-82
2021/12/31 05:09:45;;;;;;;44.53;18.98;;;;;;;-4.72;72.94;99555.53;5094473;28;20159;-83
2021/12/31 05:12:15;;;;;;;41.63;18.88;;;;;;;-4.64;72.91;99556.00;5094894;28;20109;-81
2021/12/31 05:14:43;;;;;;;46.35;19.60;;;;;;;-4.61;72.79;99553.63;5094251;28;20391;-79
2021/12/31 05:17:09;;;;;;;46.03;19.40;;;;;;;-4.57;72.88;99540.28;5095722;28;20051;-79
2021/12/31 05:19:36;;;;;;;43.17;18.33;;;;;;;-4.55;72.53;99556.53;5099710;28;20067;-79
2021/12/31 05:22:04;;;;;;;50.97;19.25;;;;;;;-4.58;72.58;99554.69;5105472;28;20051;-79
2021/12/31 05:24:31;;;;;;;42.58;17.00;;;;;;;-4.59;72.56;99552.91;5118277;28;20060;-78
2021/12/31 05:26:58;;;;;;;47.95;21.05;;;;;;;-4.64;72.78;99545.81;5116526;28;20044;-83
2021/12/31 05:29:25;;;;;;;47.30;19.40;;;;;;;-4.56;72.83;99555.66;5095762;28;20074;-82
2021/12/31 05:31:52;;;;;;;48.58;21.42;;;;;;;-4.50;72.54;99538.94;5096959;28;20044;-81
2021/12/31 05:34:19;;;;;;;46.28;19.75;;;;;;;-4.45;72.56;99551.19;5101111;28;20508;-82
2021/12/31 05:36:48;;;;;;;45.72;17.48;;;;;;;-4.67;72.50;99543.06;5094922;28;20117;-80
2021/12/31 05:39:15;;;;;;;43.85;18.50;;;;;;;-4.82;72.76;99538.84;5093948;28;20064;-82
2021/12/31 05:41:42;;;;;;;46.10;18.42;;;;;;;-4.78;72.86;99552.63;5094047;28;20101;-82
2021/12/31 05:44:09;;;;;;;41.63;17.63;;;;;;;-4.85;73.07;99531.00;5074310;28;20402;-81
2021/12/31 05:46:37;;;;;;;44.75;19.33;;;;;;;-4.78;72.89;99553.50;5093121;28;20060;-81
2021/12/31 05:49:04;;;;;;;41.42;19.33;;;;;;;-4.82;72.73;99550.69;5094363;28;20570;-81
2021/12/31 05:51:31;;;;;;;44.22;19.38;;;;;;;-4.86;72.85;99538.56;5091998;28;20056;-83
2021/12/31 05:53:58;;;;;;;43.92;18.60;;;;;;;-4.81;73.14;99555.88;5093922;28;20489;-79
2021/12/31 05:56:25;;;;;;;45.95;18.95;;;;;;;-4.87;73.09;99526.63;5093479;28;20056;-80
2021/12/31 05:58:52;;;;;;;45.47;19.55;;;;;;;-4.63;72.98;99539.91;5093037;28;20055;-79
2021/12/31 06:01:20;;;;;;;47.35;18.20;;;;;;;-4.66;72.68;99547.38;5094661;28;20163;-79
2021/12/31 06:03:47;;;;;;;41.38;17.88;;;;;;;-4.77;72.85;99546.75;5093594;28;20063;-80
2021/12/31 06:06:14;;;;;;;42.47;19.10;;;;;;;-4.87;73.41;99514.75;5094853;28;20056;-86
2021/12/31 06:08:42;;;;;;;46.35;19.27;;;;;;;-4.74;73.17;99521.44;5096360;28;20060;-83
2021/12/31 06:11:09;;;;;;;41.20;18.42;;;;;;;-4.65;73.13;99534.72;5096171;28;20060;-83
2021/12/31 06:13:37;;;;;;;48.38;20.33;;;;;;;-4.60;72.90;99524.81;5096150;28;20125;-86
2021/12/31 06:16:07;;;;;;;41.30;18.40;;;;;;;-4.58;72.59;99523.19;5095345;28;20044;-80
2021/12/31 06:18:34;;;;;;;41.38;18.63;;;;;;;-4.63;73.17;99514.41;5105034;28;20052;-81
2021/12/31 06:21:01;;;;;;;42.80;17.98;;;;;;;-4.64;72.93;99502.47;5098026;28;20062;-81
2021/12/31 06:23:28;;;;;;;43.78;19.52;;;;;;;-4.56;72.68;99519.97;5078459;28;20083;-81
2021/12/31 06:25:56;;;;;;;39.50;18.20;;;;;;;-4.58;72.38;99507.91;5099101;28;20135;-81
2021/12/31 06:28:23;;;;;;;43.55;18.83;;;;;;;-4.43;72.35;99524.09;5092146;28;20048;-81
2021/12/31 06:30:50;;;;;;;46.38;19.98;;;;;;;-4.50;72.49;99504.13;5082423;28;20048;-82
2021/12/31 06:33:17;;;;;;;40.63;17.92;;;;;;;-4.56;72.32;99485.94;5075502;28;20052;-86
2021/12/31 06:35:45;;;;;;;41.13;18.25;;;;;;;-4.45;72.48;99496.75;5075597;28;20076;-83
2021/12/31 06:38:12;;;;;;;39.10;17.63;;;;;;;-4.42;72.79;99495.25;5075170;28;20052;-86
2021/12/31 06:40:39;;;;;;;42.03;18.75;;;;;;;-4.33;72.59;99490.66;5076215;28;20075;-84
2021/12/31 06:43:09;;;;;;;42.45;19.85;;;;;;;-4.24;72.53;99503.06;5074871;28;20087;-85
2021/12/31 06:45:36;;;;;;;39.85;18.75;;;;;;;-4.22;72.48;99490.41;5077559;28;20511;-85
2021/12/31 06:48:04;;;;;;;43.70;18.00;;;;;;;-4.15;72.18;99495.03;5075122;28;20525;-87
2021/12/31 06:50:32;;;;;;;39.55;17.95;;;;;;;-4.18;71.91;99505.94;5041848;28;20044;-84
2021/12/31 06:53:01;;;;;;;36.15;16.25;;;;;;;-4.16;72.42;99506.03;5077533;28;20048;-82
2021/12/31 06:55:30;;;;;;;42.70;18.10;;;;;;;-4.24;72.41;99505.59;5078469;28;20056;-83
2021/12/31 06:57:59;;;;;;;41.83;18.90;;;;;;;-4.21;72.48;99492.16;5077487;28;20064;-81
2021/12/31 07:00:27;;;;;;;41.85;18.90;;;;;;;-4.16;72.27;99503.50;5082432;28;20052;-80
2021/12/31 07:03:09;;;;;;;40.65;18.08;;;;;;;-4.32;72.56;99500.09;5086420;28;20056;-82
2021/12/31 07:05:43;;;;;;;42.35;17.80;;;;;;;-4.27;72.51;99507.13;5085761;28;20059;-81
2021/12/31 07:08:10;;;;;;;41.70;17.17;;;;;;;-4.25;71.86;99503.84;5078034;28;20094;-84
2021/12/31 07:10:38;;;;;;;41.28;18.27;;;;;;;-4.49;72.39;99485.50;5077242;28;20173;-83
2021/12/31 07:13:10;;;;;;;44.47;18.23;;;;;;;-4.41;72.96;99499.56;5079945;28;20065;-84
2021/12/31 07:15:48;;;;;;;39.50;16.80;;;;;;;-4.40;72.70;99488.56;5074792;28;20166;-83
2021/12/31 07:18:20;;;;;;;41.50;18.08;;;;;;;-4.29;72.64;99494.28;5073539;28;20095;-84
2021/12/31 07:20:48;;;;;;;36.70;16.48;;;;;;;-4.32;72.40;99463.50;5074100;28;20094;-89
2021/12/31 07:23:18;;;;;;;36.78;16.77;;;;;;;-4.08;72.41;99486.94;5083816;28;20044;-88
2021/12/31 07:25:46;;;;;;;45.58;20.17;;;;;;;-4.09;72.05;99474.97;5098994;28;20456;-89
2021/12/31 07:28:15;;;;;;;38.05;16.90;;;;;;;-4.34;72.23;99432.81;5066496;28;20055;-91
2021/12/31 07:30:46;;;;;;;36.47;16.50;;;;;;;-4.19;71.88;99457.44;5098711;28;20052;-87
2021/12/31 07:33:18;;;;;;;39.17;17.08;;;;;;;-3.93;72.09;99482.69;5098709;28;20130;-85
2021/12/31 07:35:46;;;;;;;38.20;17.63;;;;;;;-3.97;72.08;99477.34;5097406;28;20055;-91
2021/12/31 07:38:34;;;;;;;39.40;17.70;;;;;;;-4.01;72.44;99486.47;5097131;28;20068;-90
2021/12/31 07:41:02;;;;;;;42.65;17.48;;;;;;;-4.05;72.13;99443.72;5091803;28;20129;-87
2021/12/31 07:43:30;;;;;;;38.90;16.70;;;;;;;-3.87;72.30;99453.16;5091541;28;20574;-87
2021/12/31 07:45:57;;;;;;;41.72;17.52;;;;;;;-3.76;71.67;99452.09;5095937;28;20052;-87
2021/12/31 07:48:25;;;;;;;40.72;17.25;;;;;;;-3.74;72.18;99460.72;5081783;28;20106;-87
2021/12/31 07:50:53;;;;;;;41.47;17.50;;;;;;;-3.70;71.81;99460.06;5073187;28;20513;-88
2021/12/31 07:53:20;;;;;;;40.70;17.48;;;;;;;-3.82;72.41;99447.53;5073500;28;20504;-86
2021/12/31 07:55:47;;;;;;;37.08;16.73;;;;;;;-3.83;72.07;99444.88;5092143;28;20524;-87
2021/12/31 07:58:14;;;;;;;38.60;17.00;;;;;;;-3.75;72.19;99451.28;5091143;28;20117;-86
2021/12/31 08:00:41;;;;;;;36.92;16.80;;;;;;;-3.75;72.38;99443.63;5091872;28;20058;-87
2021/12/31 08:03:09;;;;;;;41.22;18.00;;;;;;;-3.45;71.96;99461.38;5077523;28;20060;-87
2021/12/31 08:05:37;;;;;;;37.65;17.10;;;;;;;-3.49;71.25;99439.91;5094250;28;20044;-86
2021/12/31 08:08:05;;;;;;;38.17;18.15;;;;;;;-3.40;71.63;99436.94;5091800;28;20047;-87
2021/12/31 08:10:33;;;;;;;39.35;17.83;;;;;;;-3.48;71.33;99420.34;5092778;28;20063;-86
2021/12/31 08:13:20;;;;;;;36.55;16.40;;;;;;;-3.46;71.57;99434.06;5094633;28;20056;-87
2021/12/31 08:15:48;;;;;;;37.83;16.70;;;;;;;-3.35;71.62;99441.50;5091246;28;20063;-88
2021/12/31 08:18:15;;;;;;;39.60;17.67;;;;;;;-3.22;71.51;99431.91;5094648;28;20051;-86
2021/12/31 08:20:41;;;;;;;41.75;17.98;;;;;;;-3.12;70.83;99424.81;5096616;28;20056;-87
2021/12/31 08:23:10;;;;;;;42.15;17.15;;;;;;;-3.20;70.98;99418.41;5080328;28;20048;-86
2021/12/31 08:25:37;;;;;;;40.85;17.50;;;;;;;-3.38;71.18;99390.25;5094523;28;20135;-86
2021/12/31 08:28:10;;;;;;;41.20;17.05;;;;;;;-3.20;71.61;99405.63;5097040;28;20048;-87
2021/12/31 08:30:38;;;;;;;;;;;;;;;-3.29;71.07;99407.75;5096921;28;20075;-86
2021/12/31 08:33:05;;;;;;;40.25;17.55;;;;;;;-3.32;71.18;99412.66;5097480;28;19931;-87
2021/12/31 08:35:32;;;;;;;41.50;17.55;;;;;;;-3.25;71.17;99401.09;5091351;28;20078;-87
2021/12/31 08:37:59;;;;;;;37.53;16.95;;;;;;;-3.32;71.47;99379.47;5078387;28;20132;-85
2021/12/31 08:43:23;;;;;;;37.90;16.05;;;;;;;-3.37;71.44;99365.59;5075797;28;20053;-88
2021/12/31 08:45:54;;;;;;;43.13;17.63;;;;;;;-3.41;71.05;99350.91;5060361;28;20151;-89
2021/12/31 08:48:26;;;;;;;40.38;16.77;;;;;;;-3.46;71.75;99360.91;5075078;28;20053;-88
2021/12/31 08:50:54;;;;;;;38.65;16.90;;;;;;;-3.44;71.71;99348.19;5060244;28;20544;-85
2021/12/31 08:53:21;;;;;;;36.30;16.40;;;;;;;-3.29;71.86;99346.44;5059203;28;20123;-83
2021/12/31 08:55:51;;;;;;;39.13;17.25;;;;;;;-3.30;71.45;99337.00;5078302;28;20076;-86
2021/12/31 08:58:18;;;;;;;42.33;17.48;;;;;;;-3.24;71.42;99336.44;5078186;28;20064;-86
2021/12/31 09:00:47;;;;;;;40.38;16.20;;;;;;;-3.04;70.94;99361.28;5083650;28;20056;-87
2021/12/31 09:03:15;;;;;;;42.88;17.77;;;;;;;-3.26;71.53;99335.47;5083522;28;20051;-87
2021/12/31 09:05:46;;;;;;;39.22;17.33;;;;;;;-3.25;71.78;99327.00;5050343;28;20068;-89
2021/12/31 09:08:14;;;;;;;41.00;17.02;;;;;;;-3.02;71.53;99354.56;5094728;28;20048;-88
2021/12/31 09:10:41;;;;;;;44.45;18.17;;;;;;;-3.05;71.44;99340.75;5096252;28;20071;-91
2021/12/31 09:13:09;;;;;;;40.20;17.73;;;;;;;-3.11;71.36;99336.25;5081342;28;20052;-87
2021/12/31 09:15:35;;;;;;;38.58;17.55;;;;;;;-3.25;71.62;99325.31;5097162;28;20028;-87
2021/12/31 09:18:03;;;;;;;38.03;16.85;;;;;;;-3.18;71.75;99332.50;5078211;28;20084;-89
2021/12/31 09:20:30;;;;;;;37.97;16.85;;;;;;;-3.12;72.07;99340.47;5046389;28;20664;-87
2021/12/31 09:23:02;;;;;;;41.00;18.58;;;;;;;-3.05;71.60;99330.53;5076356;28;20427;-88
2021/12/31 09:25:46;;;;;;;41.47;17.30;;;;;;;-3.09;71.43;99335.50;5062239;28;20066;-88
2021/12/31 09:28:13;;;;;;;40.85;16.80;;;;;;;-3.18;71.66;99349.53;5077667;28;20053;-89
2021/12/31 09:30:41;;;;;;;38.47;15.88;;;;;;;-3.16;72.01;99340.22;5075067;28;20049;-88
2021/12/31 09:33:09;;;;;;;36.75;16.02;;;;;;;-3.19;72.10;99348.63;5075165;28;20052;-88
2021/12/31 09:35:42;;;;;;;37.47;16.38;;;;;;;-3.31;72.10;99310.59;5059243;28;20079;-89
2021/12/31 09:38:11;;;;;;;35.45;15.82;;;;;;;-3.22;72.13;99339.94;5072968;28;20047;-88
2021/12/31 09:40:39;;;;;;;38.13;15.70;;;;;;;-3.31;72.45;99331.03;5077599;28;20073;-86
2021/12/31 09:43:12;;;;;;;36.90;16.40;;;;;;;-3.32;72.38;99321.59;5072030;28;20052;-86
2021/12/31 09:45:44;;;;;;;35.50;15.13;;;;;;;-3.27;72.40;99326.06;5079369;28;20090;-87
2021/12/31 09:48:15;;;;;;;36.28;16.33;;;;;;;-3.23;72.40;99325.41;5066811;28;20044;-87
2021/12/31 09:51:06;;;;;;;38.65;17.17;;;;;;;-3.65;72.64;99261.19;5084919;28;20098;-88
2021/12/31 09:53:37;;;;;;;34.88;15.18;;;;;;;-3.47;72.38;99279.09;5080921;28;20044;-86
2021/12/31 09:56:13;;;;;;;38.03;17.08;;;;;;;-3.31;72.65;99305.47;5075233;28;20597;-85
2021/12/31 09:58:40;;;;;;;37.47;16.00;;;;;;;-3.04;72.82;99322.06;5073743;28;20075;-83
2021/12/31 10:01:11;;;;;;;39.38;17.08;;;;;;;-3.37;72.00;99263.44;5073117;28;20105;-87
2021/12/31 10:03:40;;;;;;;36.80;16.35;;;;;;;-3.20;72.30;99295.78;5073173;28;20139;-82
2021/12/31 10:06:11;;;;;;;37.92;17.27;;;;;;;-3.13;72.55;99299.50;5073811;28;20162;-83
2021/12/31 10:08:42;;;;;;;36.00;15.88;;;;;;;-3.05;72.25;99294.75;5071119;28;20450;-82
2021/12/31 10:11:17;;;;;;;33.33;14.57;;;;;;;-3.19;72.30;99279.63;5074138;28;20060;-82
2021/12/31 10:13:47;;;;;;;35.83;16.02;;;;;;;-3.19;72.64;99281.31;5072251;28;20071;-84
2021/12/31 10:16:24;;;;;;;;;;;;;;;-3.21;72.45;99288.91;5069975;28;20105;-82
2021/12/31 10:19:05;;;;;;;37.35;15.45;;;;;;;-3.20;72.43;99264.25;5073709;28;19946;-83
2021/12/31 10:21:38;;;;;;;37.63;15.73;;;;;;;-3.30;72.60;99263.78;5071593;28;20510;-83
2021/12/31 10:24:27;;;;;;;36.42;15.48;;;;;;;-3.15;72.52;99278.13;5071887;28;20053;-82
2021/12/31 10:27:23;;;;;;;40.72;17.75;;;;;;;-3.35;72.71;99278.03;5077871;28;20054;-83
2021/12/31 10:30:18;;;;;;;37.92;16.83;;;;;;;-3.16;72.90;99268.69;5070517;28;20036;-84
2021/12/31 10:32:46;;;;;;;39.28;16.90;;;;;;;-3.15;72.52;99263.66;5073672;28;20079;-85
2021/12/31 10:35:13;;;;;;;44.20;17.52;;;;;;;-3.07;72.68;99263.16;5071937;28;20093;-87
2021/12/31 10:37:45;;;;;;;42.90;17.95;;;;;;;-3.02;72.62;99261.69;5071232;28;20048;-84
2021/12/31 10:40:25;;;;;;;37.28;16.83;;;;;;;-3.10;72.55;99261.31;5089377;28;20509;-85
2021/12/31 10:43:11;;;;;;;40.75;17.45;;;;;;;-2.99;72.82;99252.50;5075517;28;20052;-84
2021/12/31 10:45:58;;;;;;;;;;;;;;;-3.13;72.59;99263.75;5078942;28;20048;-83
2021/12/31 10:48:48;;;;;;;39.63;17.08;;;;;;;-3.09;72.39;99258.84;5092778;28;19924;-86
2021/12/31 10:51:19;;;;;;;38.53;16.65;;;;;;;-3.18;73.07;99237.09;5091608;28;20048;-86
2021/12/31 10:53:55;;;;;;;39.92;15.77;;;;;;;-3.07;72.94;99256.38;5089940;28;20075;-82
2021/12/31 10:56:39;;;;;;;38.75;16.52;;;;;;;-3.16;72.60;99212.47;5084068;28;20055;-83
2021/12/31 10:59:06;;;;;;;36.97;14.73;;;;;;;-3.13;72.53;99181.97;5062032;28;20413;-84
2021/12/31 11:01:34;;;;;;;35.63;14.75;;;;;;;-3.25;72.67;99183.94;5080537;28;20464;-85
2021/12/31 11:04:02;;;;;;;34.53;15.63;;;;;;;-2.85;72.48;99221.59;5079860;28;20105;-85
2021/12/31 11:06:28;;;;;;;34.85;15.82;;;;;;;-2.77;72.71;99238.19;5081589;28;20060;-82
2021/12/31 11:09:01;;;;;;;35.22;15.57;;;;;;;-2.72;72.42;99219.66;5077125;28;20101;-83
2021/12/31 11:11:29;;;;;;;39.55;16.15;;;;;;;-2.72;72.38;99229.88;5061489;28;20156;-83
2021/12/31 11:14:00;;;;;;;34.80;16.05;;;;;;;-2.70;72.63;99222.28;5063332;28;20517;-86
2021/12/31 11:16:27;;;;;;;37.95;16.85;;;;;;;-2.74;72.81;99236.59;5085877;28;20061;-84
2021/12/31 11:18:56;;;;;;;43.85;18.70;;;;;;;-2.82;73.05;99227.72;5081786;28;20052;-84
2021/12/31 11:21:24;;;;;;;41.65;18.42;;;;;;;-2.86;72.90;99204.50;5083475;28;20099;-84
2021/12/31 11:23:53;;;;;;;42.95;19.25;;;;;;;-2.78;72.91;99219.38;5085431;28;20502;-82
2021/12/31 11:26:28;;;;;;;41.70;18.33;;;;;;;-2.99;73.08;99167.28;5087420;28;20060;-85
2021/12/31 11:29:14;;;;;;;41.28;17.40;;;;;;;-2.79;72.39;99193.75;5070290;28;20485;-84
2021/12/31 11:31:42;;;;;;;42.60;18.48;;;;;;;-2.82;72.71;99191.06;5087288;28;20072;-86
2021/12/31 11:34:11;;;;;;;36.83;17.23;;;;;;;-2.66;72.80;99207.97;5092863;28;20052;-85
2021/12/31 11:36:48;;;;;;;40.75;19.30;;;;;;;-2.60;72.74;99210.78;5087255;28;20048;-89